createdAt,value
2022-08-16T00:01:24.464Z,2.40
2022-08-16T00:03:53.133Z,2.08
2022-08-16T00:06:21.510Z,2.35
2022-08-16T00:08:50.477Z,2.33
2022-08-16T00:11:22.363Z,2.17
2022-08-16T00:13:54.222Z,2.65
2022-08-16T00:17:00.617Z,2.80
2022-08-16T00:21:42.554Z,2.25
2022-08-16T00:24:12.331Z,2.47
2022-08-16T00:26:44.089Z,2.30
2022-08-16T00:29:17.028Z,2.30
2022-08-16T00:32:00.705Z,2.28
2022-08-16T00:34:43.543Z,2.35
2022-08-16T00:37:24.436Z,2.22
2022-08-16T00:39:58.582Z,2.35
2022-08-16T00:42:31.799Z,2.38
2022-08-16T00:45:10.882Z,2.85
2022-08-16T00:47:49.597Z,3.55
2022-08-16T00:50:20.381Z,2.50
2022-08-16T00:52:51.450Z,2.15
2022-08-16T00:55:21.944Z,2.80
2022-08-16T00:57:59.098Z,2.50
2022-08-16T01:00:31.948Z,2.35
2022-08-16T01:03:04.466Z,2.13
2022-08-16T01:05:34.246Z,2.28
2022-08-16T01:08:35.319Z,2.00
2022-08-16T01:10:51.314Z,2.42
2022-08-16T01:13:22.655Z,1.83
2022-08-16T01:15:57.276Z,2.42
2022-08-16T01:18:40.013Z,2.63
2022-08-16T01:21:22.526Z,2.15
2022-08-16T01:24:06.726Z,2.30
2022-08-16T01:26:58.643Z,2.50
2022-08-16T01:29:57.216Z,2.40
2022-08-16T01:32:31.590Z,2.15
2022-08-16T01:35:03.308Z,2.40
2022-08-16T01:37:38.902Z,2.17
2022-08-16T01:40:13.566Z,2.30
2022-08-16T01:42:44.252Z,2.25
2022-08-16T01:45:16.796Z,2.45
2022-08-16T01:47:50.986Z,2.30
2022-08-16T01:50:41.966Z,2.67
2022-08-16T01:53:11.261Z,2.17
2022-08-16T01:55:42.846Z,2.60
2022-08-16T01:58:23.664Z,2.28
2022-08-16T02:00:51.790Z,2.30
2022-08-16T02:03:24.176Z,2.53
2022-08-16T02:05:52.575Z,2.30
2022-08-16T02:08:33.480Z,2.47
2022-08-16T02:13:33.172Z,2.45
2022-08-16T02:16:01.432Z,2.67
2022-08-16T02:20:58.303Z,2.40
2022-08-16T02:23:29.652Z,2.20
2022-08-16T02:25:57.681Z,2.50
2022-08-16T02:28:29.235Z,2.00
2022-08-16T02:31:00.541Z,2.80
2022-08-16T02:33:43.432Z,2.22
2022-08-16T02:36:14.571Z,2.60
2022-08-16T02:41:29.691Z,1.98
2022-08-16T02:44:00.179Z,2.10
2022-08-16T02:46:33.317Z,2.20
2022-08-16T02:49:02.321Z,2.22
2022-08-16T02:51:31.374Z,2.60
2022-08-16T02:53:59.800Z,2.00
2022-08-16T02:56:32.296Z,2.35
2022-08-16T02:59:01.736Z,2.35
2022-08-16T03:01:37.086Z,2.47
2022-08-16T03:04:46.383Z,2.33
2022-08-16T03:14:25.004Z,2.22
2022-08-16T03:16:59.375Z,2.30
2022-08-16T03:19:42.218Z,2.78
2022-08-16T03:22:19.486Z,2.10
2022-08-16T03:24:57.603Z,2.35
2022-08-16T03:27:30.820Z,2.60
2022-08-16T03:30:02.615Z,2.30
2022-08-16T03:32:45.053Z,2.38
2022-08-16T03:35:17.806Z,2.20
2022-08-16T03:38:01.573Z,2.17
2022-08-16T03:40:33.219Z,2.65
2022-08-16T03:43:19.994Z,2.38
2022-08-16T03:45:52.643Z,2.58
2022-08-16T03:48:36.251Z,2.33
2022-08-16T03:53:37.790Z,2.67
2022-08-16T03:56:19.548Z,2.60
2022-08-16T03:58:50.890Z,2.50
2022-08-16T04:01:22.159Z,2.67
2022-08-16T04:03:50.217Z,2.35
2022-08-16T04:06:18.294Z,2.00
2022-08-16T04:08:46.286Z,2.20
2022-08-16T04:11:16.515Z,2.50
2022-08-16T04:14:00.745Z,2.65
2022-08-16T04:16:34.695Z,2.78
2022-08-16T04:19:04.343Z,2.60
2022-08-16T04:24:03.141Z,2.95
2022-08-16T04:26:32.089Z,2.65
2022-08-16T04:29:16.395Z,3.10
2022-08-16T04:31:56.726Z,3.03
2022-08-16T04:34:28.189Z,2.97
2022-08-16T04:36:56.642Z,2.70
2022-08-16T04:39:37.106Z,2.63
2022-08-16T04:42:13.562Z,2.78
2022-08-16T04:44:54.537Z,2.88
2022-08-16T04:47:31.299Z,2.88
2022-08-16T04:50:01.576Z,2.85
2022-08-16T04:52:33.990Z,2.65
2022-08-16T04:55:06.215Z,5.05
2022-08-16T04:57:34.494Z,3.10
2022-08-16T05:00:32.238Z,3.03
2022-08-16T05:02:54.874Z,3.50
2022-08-16T05:05:24.618Z,2.92
2022-08-16T05:07:59.715Z,3.17
2022-08-16T05:10:29.565Z,2.92
2022-08-16T05:12:58.400Z,2.85
2022-08-16T05:15:26.636Z,2.78
2022-08-16T05:17:59.070Z,2.92
2022-08-16T05:20:39.535Z,2.70
2022-08-16T05:23:15.051Z,2.70
2022-08-16T05:25:48.182Z,4.25
2022-08-16T05:28:17.256Z,3.60
2022-08-16T05:30:45.582Z,3.30
2022-08-16T05:33:21.155Z,3.30
2022-08-16T05:35:55.168Z,3.10
2022-08-16T05:38:32.790Z,3.20
2022-08-16T05:41:09.498Z,3.08
2022-08-16T05:46:28.803Z,2.85
2022-08-16T05:51:38.781Z,3.40
2022-08-16T05:54:11.691Z,2.95
2022-08-16T05:56:43.339Z,2.60
2022-08-16T05:59:11.234Z,2.97
2022-08-16T06:01:39.969Z,2.90
2022-08-16T06:04:13.557Z,3.13
2022-08-16T06:09:42.648Z,3.13
2022-08-16T06:12:12.808Z,2.95
2022-08-16T06:14:58.769Z,3.60
2022-08-16T06:20:14.665Z,3.25
2022-08-16T06:22:45.192Z,3.15
2022-08-16T06:25:15.895Z,3.10
2022-08-16T06:27:57.674Z,3.65
2022-08-16T06:30:28.704Z,3.30
2022-08-16T06:32:56.832Z,3.45
2022-08-16T06:35:26.580Z,3.53
2022-08-16T06:38:22.239Z,3.30
2022-08-16T06:40:57.552Z,3.60
2022-08-16T06:43:27.394Z,3.10
2022-08-16T06:45:56.882Z,3.50
2022-08-16T06:48:32.921Z,3.05
2022-08-16T06:51:03.499Z,3.08
2022-08-16T06:53:33.501Z,3.63
2022-08-16T06:56:14.918Z,3.08
2022-08-16T07:01:43.317Z,3.70
2022-08-16T07:04:10.358Z,3.55
2022-08-16T07:06:43.048Z,4.38
2022-08-16T07:14:24.222Z,3.88
2022-08-16T07:16:55.296Z,4.05
2022-08-16T07:20:01.587Z,5.32
2022-08-16T07:22:52.456Z,4.05
2022-08-16T07:25:05.401Z,4.10
2022-08-16T07:27:33.897Z,4.07
2022-08-16T07:30:38.827Z,4.10
2022-08-16T07:32:56.852Z,4.20
2022-08-16T07:35:25.799Z,4.65
2022-08-16T07:37:55.255Z,4.20
2022-08-16T07:40:49.208Z,3.95
2022-08-16T07:43:11.224Z,3.88
2022-08-16T07:45:39.217Z,4.35
2022-08-16T07:48:12.397Z,3.95
2022-08-16T07:50:55.740Z,3.90
2022-08-16T07:53:29.593Z,3.90
2022-08-16T07:56:00.325Z,4.30
2022-08-16T07:58:35.128Z,3.75
2022-08-16T08:01:10.377Z,3.95
2022-08-16T08:03:47.586Z,3.75
2022-08-16T08:06:16.868Z,4.30
2022-08-16T08:11:18.437Z,3.78
2022-08-16T08:13:46.285Z,5.03
2022-08-16T08:16:18.494Z,4.10
2022-08-16T08:21:26.361Z,4.07
2022-08-16T08:23:57.737Z,4.43
2022-08-16T08:26:26.096Z,3.75
2022-08-16T08:31:29.228Z,4.18
2022-08-16T08:33:58.570Z,4.05
2022-08-16T08:36:33.531Z,4.03
2022-08-16T08:39:03.920Z,3.85
2022-08-16T08:41:42.318Z,3.92
2022-08-16T08:44:29.060Z,4.20
2022-08-16T08:47:01.626Z,4.05
2022-08-16T08:49:46.558Z,7.40
2022-08-16T08:52:34.297Z,4.60
2022-08-16T08:55:11.133Z,3.80
2022-08-16T08:57:40.938Z,4.10
2022-08-16T09:00:13.078Z,3.85
2022-08-16T09:02:44.365Z,4.40
2022-08-16T09:05:15.274Z,3.85
2022-08-16T09:08:00.329Z,4.30
2022-08-16T09:10:31.021Z,4.18
2022-08-16T09:12:58.946Z,4.32
2022-08-16T09:15:33.266Z,5.13
2022-08-16T09:18:24.745Z,4.30
2022-08-16T09:21:00.166Z,4.18
2022-08-16T09:23:31.163Z,4.53
2022-08-16T09:29:14.836Z,4.07
2022-08-16T09:31:44.079Z,4.68
2022-08-16T09:34:18.689Z,4.95
2022-08-16T09:36:47.742Z,4.35
2022-08-16T09:39:16.571Z,4.82
2022-08-16T09:41:53.359Z,4.78
2022-08-16T09:45:10.781Z,3.95
2022-08-16T09:47:11.892Z,4.20
2022-08-16T09:49:40.832Z,3.97
2022-08-16T09:52:10.334Z,4.00
2022-08-16T09:54:44.276Z,3.97
2022-08-16T09:59:42.327Z,4.57
2022-08-16T10:04:55.139Z,4.32
2022-08-16T10:07:23.542Z,4.03
2022-08-16T10:09:54.864Z,4.13
2022-08-16T10:12:44.027Z,4.40
2022-08-16T10:15:16.014Z,4.57
2022-08-16T10:23:06.156Z,4.18
2022-08-16T10:27:19.265Z,4.30
2022-08-16T10:28:29.992Z,4.00
2022-08-16T10:36:03.834Z,4.07
2022-08-16T10:41:05.116Z,3.95
2022-08-16T10:46:33.664Z,4.40
2022-08-16T10:48:53.929Z,4.45
2022-08-16T10:51:33.332Z,4.50
2022-08-16T10:56:52.498Z,4.60
2022-08-16T10:59:46.037Z,4.60
2022-08-16T11:03:37.516Z,4.43
2022-08-16T11:05:12.230Z,4.40
2022-08-16T11:19:04.128Z,4.72
2022-08-16T11:21:37.615Z,4.80
2022-08-16T11:27:24.058Z,3.85
2022-08-16T11:32:31.907Z,4.18
2022-08-16T11:35:14.990Z,4.18
2022-08-16T11:40:38.882Z,4.43
2022-08-16T11:43:10.183Z,4.00
2022-08-16T11:48:08.503Z,4.00
2022-08-16T11:50:36.530Z,4.20
2022-08-16T12:00:50.548Z,4.35
2022-08-16T12:03:34.649Z,4.40
2022-08-16T12:06:11.053Z,5.15
2022-08-16T12:08:53.292Z,4.22
2022-08-16T12:13:51.839Z,4.20
2022-08-16T12:16:20.744Z,3.85
2022-08-16T12:18:50.441Z,4.35
2022-08-16T12:21:18.402Z,3.67
2022-08-16T12:26:15.508Z,3.63
2022-08-16T12:28:53.957Z,3.70
2022-08-16T12:43:52.308Z,3.53
2022-08-16T12:56:34.596Z,4.40
2022-08-16T12:59:07.610Z,4.30
2022-08-16T13:04:20.306Z,3.50
2022-08-16T13:06:52.285Z,3.60
2022-08-16T13:14:32.216Z,3.78
2022-08-16T13:17:02.713Z,3.60
2022-08-16T13:20:03.437Z,3.83
2022-08-16T13:35:07.179Z,3.72
2022-08-16T14:18:15.967Z,3.90
2022-08-16T14:20:39.565Z,3.45
2022-08-16T14:23:17.848Z,3.10
2022-08-16T14:30:52.303Z,3.80
2022-08-16T16:53:17.836Z,3.40
2022-08-16T16:58:36.482Z,3.30
2022-08-16T17:39:23.834Z,3.05
2022-08-16T17:41:51.819Z,3.63
2022-08-16T17:44:21.115Z,3.38
2022-08-16T17:46:51.263Z,3.35
2022-08-16T17:56:58.530Z,3.38
2022-08-16T18:01:59.254Z,3.47
2022-08-16T18:12:33.986Z,3.78
2022-08-16T18:20:31.312Z,3.70
2022-08-16T18:25:32.666Z,3.70
2022-08-16T18:28:00.599Z,3.72
2022-08-16T18:35:25.971Z,3.90
2022-08-16T18:37:54.021Z,4.40
2022-08-16T18:40:21.827Z,3.72
2022-08-16T18:43:00.176Z,3.83
2022-08-16T18:45:35.699Z,4.30
2022-08-16T18:48:05.925Z,4.43
2022-08-16T18:51:04.246Z,5.10
2022-08-16T18:53:25.218Z,5.50
2022-08-16T18:55:55.534Z,5.63
2022-08-16T19:03:26.335Z,5.00
2022-08-16T19:05:58.203Z,5.35
2022-08-16T19:10:55.327Z,5.07
2022-08-16T19:13:25.841Z,5.53
2022-08-16T19:15:58.339Z,4.63
2022-08-16T19:18:26.742Z,6.13
2022-08-16T19:20:59.265Z,6.00
2022-08-16T19:23:33.248Z,6.07
2022-08-16T19:26:03.473Z,6.15
2022-08-16T19:31:24.260Z,5.20
2022-08-16T19:33:57.421Z,5.90
2022-08-16T19:39:04.993Z,5.72
2022-08-16T19:41:34.096Z,5.25
2022-08-16T19:44:01.947Z,5.15
2022-08-16T19:46:31.972Z,5.40
2022-08-16T19:49:00.028Z,5.43
2022-08-16T19:51:27.993Z,4.70
2022-08-16T19:53:55.857Z,5.18
2022-08-16T19:56:25.899Z,4.65
2022-08-16T20:01:44.098Z,4.60
2022-08-16T20:04:13.344Z,4.40
2022-08-16T20:06:41.489Z,4.10
2022-08-16T20:09:10.341Z,4.60
2022-08-16T20:11:42.821Z,4.75
2022-08-16T20:14:10.774Z,4.97
2022-08-16T20:16:38.627Z,4.75
2022-08-16T20:19:08.064Z,4.40
2022-08-16T20:21:36.400Z,4.63
2022-08-16T20:24:31.886Z,3.95
2022-08-16T20:26:52.400Z,4.72
2022-08-16T20:29:20.580Z,4.95
2022-08-16T20:31:49.883Z,5.20
2022-08-16T20:34:19.199Z,4.97
2022-08-16T20:36:47.019Z,4.32
2022-08-16T20:39:14.989Z,3.95
2022-08-16T20:41:43.713Z,4.00
2022-08-16T20:44:12.819Z,4.15
2022-08-16T20:46:40.707Z,4.35
2022-08-16T20:51:49.727Z,4.68
2022-08-16T20:54:20.294Z,4.45
2022-08-16T20:56:48.145Z,4.18
2022-08-16T20:59:16.248Z,4.38
2022-08-16T21:01:47.016Z,4.55
2022-08-16T21:04:18.319Z,5.03
2022-08-16T21:06:53.426Z,4.00
2022-08-16T21:09:23.332Z,4.20
2022-08-16T21:11:53.504Z,4.47
2022-08-16T21:14:21.408Z,4.65
2022-08-16T21:16:49.440Z,4.90
2022-08-16T21:21:47.006Z,4.30
2022-08-16T21:24:15.559Z,4.65
2022-08-16T21:26:47.397Z,5.00
2022-08-16T21:29:24.833Z,4.72
2022-08-16T21:31:53.078Z,4.30
2022-08-16T21:34:20.932Z,4.28
2022-08-16T21:36:52.130Z,4.90
2022-08-16T21:39:20.521Z,4.55
2022-08-16T21:41:48.330Z,4.10
2022-08-16T21:44:16.132Z,4.45
2022-08-16T21:46:43.985Z,4.22
2022-08-16T21:49:11.859Z,3.78
2022-08-16T21:51:39.774Z,3.88
2022-08-16T21:54:09.314Z,3.90
2022-08-16T21:56:37.188Z,3.78
2022-08-16T21:59:10.779Z,4.30
2022-08-16T22:01:41.463Z,4.15
2022-08-16T22:04:37.230Z,4.30
2022-08-16T22:06:58.825Z,4.00
2022-08-16T22:09:28.172Z,3.53
2022-08-16T22:11:56.067Z,3.72
2022-08-16T22:14:23.894Z,4.25
2022-08-16T22:16:51.831Z,4.25
2022-08-16T22:26:44.878Z,4.57
2022-08-16T22:31:43.977Z,4.40
2022-08-16T22:34:12.186Z,4.88
2022-08-16T22:39:10.072Z,4.38
2022-08-16T22:41:39.596Z,4.53
2022-08-16T22:44:09.263Z,4.10
2022-08-16T22:46:37.851Z,5.10
2022-08-16T22:49:06.698Z,4.38
2022-08-16T22:54:34.171Z,4.15
2022-08-16T22:56:52.864Z,4.00
2022-08-16T22:59:24.892Z,3.85
2022-08-16T23:01:53.599Z,4.20
2022-08-16T23:06:49.813Z,4.65
2022-08-16T23:09:17.656Z,3.97
2022-08-16T23:11:45.830Z,4.20
2022-08-16T23:14:13.663Z,4.00
2022-08-16T23:16:43.878Z,4.05
2022-08-16T23:19:13.416Z,4.45
2022-08-16T23:21:44.304Z,4.47
2022-08-16T23:26:46.736Z,3.78
2022-08-16T23:31:53.497Z,4.30
2022-08-16T23:34:21.741Z,5.10
2022-08-16T23:39:17.518Z,4.45
2022-08-16T23:44:54.963Z,4.68
2022-08-16T23:47:02.508Z,4.93
2022-08-16T23:49:55.926Z,4.70
2022-08-16T23:52:48.814Z,4.88
2022-08-16T23:55:08.164Z,4.70
2022-08-16T23:57:35.998Z,4.47
